createdAt,value
2023-03-17T00:01:54.595Z,14.73
2023-03-17T00:04:24.194Z,14.88
2023-03-17T00:06:54.261Z,13.68
2023-03-17T00:09:22.707Z,14.48
2023-03-17T00:11:51.248Z,13.10
2023-03-17T00:14:19.700Z,13.43
2023-03-17T00:16:50.220Z,13.35
2023-03-17T00:19:20.190Z,13.07
2023-03-17T00:21:48.588Z,13.07
2023-03-17T00:24:18.048Z,15.13
2023-03-17T00:26:46.219Z,14.38
2023-03-17T00:29:16.237Z,13.15
2023-03-17T00:31:45.686Z,13.80
2023-03-17T00:34:18.343Z,13.60
2023-03-17T00:36:50.846Z,14.93
2023-03-17T00:39:20.850Z,14.18
2023-03-17T00:41:49.168Z,14.65
2023-03-17T00:44:17.472Z,14.32
2023-03-17T00:46:46.517Z,13.15
2023-03-17T00:49:20.490Z,11.75
2023-03-17T00:51:49.692Z,12.15
2023-03-17T00:54:18.760Z,13.40
2023-03-17T00:56:49.289Z,13.20
2023-03-17T00:59:26.936Z,11.98
2023-03-17T01:01:55.354Z,13.63
2023-03-17T01:04:24.030Z,12.23
2023-03-17T01:06:53.242Z,14.25
2023-03-17T01:09:25.929Z,13.32
2023-03-17T01:11:55.782Z,13.10
2023-03-17T01:14:24.749Z,14.77
2023-03-17T01:16:55.194Z,15.13
2023-03-17T01:19:23.881Z,15.68
2023-03-17T01:21:52.349Z,12.40
2023-03-17T01:24:21.074Z,14.68
2023-03-17T01:26:49.150Z,12.88
2023-03-17T01:29:18.569Z,13.27
2023-03-17T01:31:47.780Z,13.32
2023-03-17T01:34:15.972Z,13.48
2023-03-17T01:36:44.091Z,17.15
2023-03-17T01:39:12.893Z,14.82
2023-03-17T01:41:41.163Z,11.70
2023-03-17T01:44:16.780Z,13.38
2023-03-17T01:46:47.434Z,14.00
2023-03-17T01:49:29.977Z,12.90
2023-03-17T01:52:02.887Z,13.70
2023-03-17T01:54:38.612Z,12.00
2023-03-17T01:57:12.847Z,11.60
2023-03-17T01:59:45.622Z,15.00
2023-03-17T02:02:19.690Z,13.98
2023-03-17T02:04:47.898Z,14.18
2023-03-17T02:07:15.988Z,16.42
2023-03-17T02:09:44.697Z,14.38
2023-03-17T02:12:13.886Z,11.73
2023-03-17T02:14:42.642Z,12.60
2023-03-17T02:17:11.060Z,12.15
2023-03-17T02:19:40.439Z,13.82
2023-03-17T02:22:10.225Z,14.93
2023-03-17T02:24:43.234Z,15.32
2023-03-17T02:27:14.960Z,13.60
2023-03-17T02:29:46.272Z,14.90
2023-03-17T02:32:16.016Z,11.32
2023-03-17T02:34:44.154Z,14.38
2023-03-17T02:37:14.492Z,13.85
2023-03-17T02:39:42.609Z,12.32
2023-03-17T02:42:11.383Z,14.40
2023-03-17T02:44:39.612Z,12.73
2023-03-17T02:47:08.641Z,10.90
2023-03-17T02:49:38.224Z,13.88
2023-03-17T02:52:07.278Z,12.55
2023-03-17T02:54:37.121Z,14.20
2023-03-17T02:57:07.581Z,11.57
2023-03-17T02:59:35.859Z,14.70
2023-03-17T03:02:03.968Z,11.48
2023-03-17T03:04:32.711Z,13.07
2023-03-17T03:07:00.732Z,15.10
2023-03-17T03:09:29.835Z,11.38
2023-03-17T03:11:59.264Z,10.27
2023-03-17T03:14:27.420Z,11.38
2023-03-17T03:16:55.541Z,13.40
2023-03-17T03:19:24.320Z,12.65
2023-03-17T03:21:52.454Z,15.05
2023-03-17T03:24:20.494Z,12.20
2023-03-17T03:26:48.563Z,12.55
2023-03-17T03:29:18.010Z,11.55
2023-03-17T03:31:48.137Z,13.18
2023-03-17T03:34:16.835Z,11.98
2023-03-17T03:36:44.924Z,13.63
2023-03-17T03:39:14.415Z,11.00
2023-03-17T03:41:42.776Z,12.60
2023-03-17T03:44:10.985Z,13.48
2023-03-17T03:46:40.578Z,13.43
2023-03-17T03:49:08.753Z,12.77
2023-03-17T03:51:36.799Z,11.90
2023-03-17T03:54:05.158Z,13.35
2023-03-17T03:56:33.342Z,11.50
2023-03-17T03:59:01.380Z,12.57
2023-03-17T04:01:29.522Z,11.20
2023-03-17T04:03:58.920Z,11.98
2023-03-17T04:06:27.053Z,10.77
2023-03-17T04:08:57.141Z,11.02
2023-03-17T04:11:26.357Z,12.38
2023-03-17T04:13:54.465Z,15.43
2023-03-17T04:16:22.605Z,11.88
2023-03-17T04:18:51.305Z,12.52
2023-03-17T04:21:21.596Z,13.30
2023-03-17T04:23:50.882Z,10.75
2023-03-17T04:26:19.017Z,9.88
2023-03-17T04:28:47.135Z,11.63
2023-03-17T04:31:15.236Z,11.27
2023-03-17T04:33:43.453Z,11.70
2023-03-17T04:36:19.341Z,13.52
2023-03-17T04:38:49.067Z,12.90
2023-03-17T04:41:17.322Z,12.00
2023-03-17T04:43:45.483Z,12.07
2023-03-17T04:46:13.677Z,11.52
2023-03-17T04:48:41.958Z,11.23
2023-03-17T04:51:11.806Z,10.30
2023-03-17T04:53:40.095Z,12.20
2023-03-17T04:56:09.895Z,9.48
2023-03-17T04:58:38.046Z,11.38
2023-03-17T05:01:07.213Z,10.82
2023-03-17T05:03:35.779Z,11.73
2023-03-17T05:06:05.040Z,11.23
2023-03-17T05:08:33.134Z,10.88
2023-03-17T05:11:01.270Z,12.10
2023-03-17T05:13:30.742Z,12.05
2023-03-17T05:16:00.915Z,10.23
2023-03-17T05:18:29.348Z,11.43
2023-03-17T05:20:57.425Z,13.98
2023-03-17T05:23:25.953Z,11.30
2023-03-17T05:25:54.600Z,11.95
2023-03-17T05:28:22.734Z,10.23
2023-03-17T05:30:52.277Z,11.93
2023-03-17T05:33:21.620Z,12.30
2023-03-17T05:35:50.085Z,10.27
2023-03-17T05:38:18.309Z,10.18
2023-03-17T05:40:47.428Z,10.85
2023-03-17T05:43:15.527Z,11.23
2023-03-17T05:45:43.593Z,10.13
2023-03-17T05:48:13.391Z,10.43
2023-03-17T05:50:42.632Z,12.07
2023-03-17T05:53:11.000Z,9.65
2023-03-17T05:55:39.142Z,9.98
2023-03-17T05:58:07.971Z,9.90
2023-03-17T06:00:36.639Z,13.90
2023-03-17T06:03:05.154Z,11.50
2023-03-17T06:05:34.895Z,10.48
2023-03-17T06:08:03.121Z,10.52
2023-03-17T06:10:31.282Z,9.45
2023-03-17T06:13:01.520Z,10.27
2023-03-17T06:15:31.119Z,9.88
2023-03-17T06:17:59.301Z,12.32
2023-03-17T06:20:27.420Z,12.32
2023-03-17T06:23:04.485Z,10.85
2023-03-17T06:25:33.903Z,11.45
2023-03-17T06:28:03.952Z,10.93
2023-03-17T06:30:33.872Z,9.63
2023-03-17T06:33:02.476Z,9.98
2023-03-17T06:35:31.023Z,10.80
2023-03-17T06:38:02.275Z,11.13
2023-03-17T06:40:31.168Z,12.10
2023-03-17T06:42:59.573Z,12.48
2023-03-17T06:45:27.703Z,12.27
2023-03-17T06:47:56.114Z,12.68
2023-03-17T06:50:24.187Z,12.40
2023-03-17T06:52:52.364Z,9.35
2023-03-17T06:55:22.509Z,12.45
2023-03-17T06:57:51.433Z,11.18
2023-03-17T07:00:21.173Z,9.48
2023-03-17T07:02:49.572Z,10.35
2023-03-17T07:05:17.945Z,10.43
2023-03-17T07:07:46.332Z,10.73
2023-03-17T07:10:15.787Z,10.80
2023-03-17T07:12:45.824Z,12.35
2023-03-17T07:15:14.273Z,12.60
2023-03-17T07:17:42.558Z,11.13
2023-03-17T07:20:12.035Z,10.23
2023-03-17T07:22:40.103Z,9.98
2023-03-17T07:25:09.720Z,11.43
2023-03-17T07:27:37.972Z,12.43
2023-03-17T07:30:09.022Z,10.75
2023-03-17T07:32:37.681Z,10.00
2023-03-17T07:35:08.134Z,9.77
2023-03-17T07:37:36.531Z,11.35
2023-03-17T07:40:06.600Z,11.65
2023-03-17T07:42:34.729Z,13.98
2023-03-17T07:45:03.108Z,12.15
2023-03-17T07:47:32.702Z,8.02
2023-03-17T07:50:00.705Z,12.80
2023-03-17T07:52:28.863Z,11.00
2023-03-17T07:54:58.285Z,14.30
2023-03-17T07:57:27.206Z,11.52
2023-03-17T07:59:55.965Z,14.52
2023-03-17T08:02:24.454Z,11.48
2023-03-17T08:04:54.696Z,10.23
2023-03-17T08:07:22.774Z,10.25
2023-03-17T08:09:51.152Z,10.07
2023-03-17T08:12:20.123Z,9.57
2023-03-17T08:14:48.306Z,11.00
2023-03-17T08:17:16.955Z,11.60
2023-03-17T08:19:45.236Z,8.65
2023-03-17T08:22:14.784Z,13.10
2023-03-17T08:24:43.155Z,10.18
2023-03-17T08:27:11.405Z,9.82
2023-03-17T08:29:39.654Z,10.35
2023-03-17T08:32:08.498Z,10.82
2023-03-17T08:34:36.923Z,12.48
2023-03-17T08:37:05.036Z,9.15
2023-03-17T08:39:35.019Z,10.07
2023-03-17T08:42:03.854Z,14.30
2023-03-17T08:44:31.878Z,14.43
2023-03-17T08:46:59.946Z,8.38
2023-03-17T08:49:28.555Z,9.73
2023-03-17T08:51:56.606Z,10.65
2023-03-17T08:54:24.611Z,8.20
2023-03-17T08:56:54.065Z,9.80
2023-03-17T08:59:22.097Z,7.07
2023-03-17T09:01:50.580Z,10.57
2023-03-17T09:04:18.706Z,14.15
2023-03-17T09:07:02.201Z,9.70
2023-03-17T09:09:32.134Z,11.20
2023-03-17T09:12:01.922Z,9.82
2023-03-17T09:14:35.267Z,8.07
2023-03-17T09:17:11.214Z,11.13
2023-03-17T09:19:40.453Z,6.68
2023-03-17T09:22:09.114Z,8.98
2023-03-17T09:24:37.282Z,9.70
2023-03-17T09:27:07.236Z,12.85
2023-03-17T09:29:35.643Z,10.07
2023-03-17T09:32:03.668Z,7.78
2023-03-17T09:34:31.842Z,11.02
2023-03-17T09:37:00.181Z,11.18
2023-03-17T09:39:28.299Z,12.38
2023-03-17T09:42:14.572Z,9.40
2023-03-17T09:44:55.968Z,9.07
2023-03-17T09:47:47.589Z,8.68
2023-03-17T09:50:20.219Z,8.45
2023-03-17T09:52:51.070Z,12.57
2023-03-17T09:55:26.314Z,9.15
2023-03-17T09:57:56.980Z,10.32
2023-03-17T10:00:29.304Z,10.10
2023-03-17T10:02:57.880Z,8.23
2023-03-17T10:05:28.555Z,10.52
2023-03-17T10:08:06.334Z,10.27
2023-03-17T10:10:43.367Z,11.85
2023-03-17T10:13:23.676Z,9.43
2023-03-17T10:15:55.466Z,9.15
2023-03-17T10:18:27.604Z,8.00
2023-03-17T10:20:58.560Z,11.45
2023-03-17T10:23:31.175Z,8.43
2023-03-17T10:26:03.580Z,9.65
2023-03-17T10:28:36.128Z,10.65
2023-03-17T10:31:16.687Z,9.57
2023-03-17T10:33:45.862Z,10.15
2023-03-17T10:36:16.858Z,9.30
2023-03-17T10:38:54.224Z,11.32
2023-03-17T10:41:22.374Z,11.13
2023-03-17T10:43:51.911Z,10.73
2023-03-17T10:46:23.299Z,10.20
2023-03-17T10:48:54.066Z,9.82
2023-03-17T10:51:29.704Z,11.82
2023-03-17T10:54:01.508Z,11.85
2023-03-17T10:56:34.938Z,12.35
2023-03-17T10:59:09.619Z,14.48
2023-03-17T11:01:41.464Z,12.30
2023-03-17T11:04:31.614Z,11.38
2023-03-17T11:07:01.574Z,10.65
2023-03-17T11:09:35.889Z,10.45
2023-03-17T11:12:06.338Z,10.43
2023-03-17T11:14:36.565Z,12.63
2023-03-17T11:17:17.456Z,12.88
2023-03-17T11:19:53.655Z,12.05
2023-03-17T11:22:30.513Z,12.20
2023-03-17T11:25:06.546Z,11.90
2023-03-17T11:27:37.175Z,12.23
2023-03-17T11:30:17.936Z,12.13
2023-03-17T11:32:53.804Z,13.35
2023-03-17T11:35:47.820Z,11.30
2023-03-17T11:38:24.470Z,13.30
2023-03-17T11:41:35.742Z,14.10
2023-03-17T11:44:24.842Z,12.40
2023-03-17T11:47:03.224Z,9.85
2023-03-17T11:49:37.603Z,11.50
2023-03-17T11:52:15.277Z,10.85
2023-03-17T11:54:51.745Z,12.43
2023-03-17T11:57:24.598Z,15.10
2023-03-17T11:59:56.583Z,13.88
2023-03-17T12:02:31.564Z,13.38
2023-03-17T12:05:05.058Z,13.10
2023-03-17T12:07:37.984Z,13.20
2023-03-17T12:10:15.596Z,16.35
2023-03-17T12:12:48.785Z,12.30
2023-03-17T12:15:24.047Z,15.43
2023-03-17T12:17:58.740Z,12.73
2023-03-17T12:20:33.608Z,13.25
2023-03-17T12:23:07.678Z,12.73
2023-03-17T12:25:39.321Z,13.40
2023-03-17T12:28:15.942Z,13.40
2023-03-17T12:30:50.960Z,13.23
2023-03-17T12:33:25.876Z,13.00
2023-03-17T12:35:54.183Z,12.25
2023-03-17T12:38:29.018Z,13.77
2023-03-17T12:41:24.692Z,13.20
2023-03-17T12:44:04.346Z,11.65
2023-03-17T12:46:55.840Z,12.35
2023-03-17T12:50:06.976Z,12.30
2023-03-17T12:52:55.058Z,13.50
2023-03-17T12:55:27.282Z,11.35
2023-03-17T12:58:03.370Z,14.55
2023-03-17T13:00:33.869Z,12.57
2023-03-17T13:03:23.101Z,14.30
2023-03-17T13:05:55.492Z,12.40
2023-03-17T13:08:28.291Z,15.98
2023-03-17T13:11:18.553Z,12.40
2023-03-17T13:13:59.267Z,12.40
2023-03-17T13:16:33.805Z,13.30
2023-03-17T13:19:21.246Z,13.30
2023-03-17T13:22:24.605Z,11.88
2023-03-17T13:24:54.647Z,13.60
2023-03-17T13:27:43.945Z,15.30
2023-03-17T13:30:53.395Z,11.00
2023-03-17T13:33:24.394Z,14.45
2023-03-17T13:36:22.694Z,19.08
2023-03-17T13:39:24.845Z,15.73
2023-03-17T13:42:19.043Z,12.90
2023-03-17T13:45:06.810Z,13.65
2023-03-17T13:47:38.024Z,14.60
2023-03-17T13:50:10.040Z,13.73
2023-03-17T13:52:44.261Z,16.85
2023-03-17T13:55:38.711Z,13.48
2023-03-17T13:58:34.644Z,14.05
2023-03-17T14:01:07.323Z,12.15
2023-03-17T14:03:41.821Z,15.15
2023-03-17T14:06:13.467Z,14.60
2023-03-17T14:08:46.751Z,16.08
2023-03-17T14:11:24.066Z,16.52
2023-03-17T14:14:08.390Z,15.02
2023-03-17T14:16:43.820Z,13.68
2023-03-17T14:19:18.060Z,14.88
2023-03-17T14:21:46.227Z,15.52
2023-03-17T14:24:21.805Z,15.05
2023-03-17T14:26:51.068Z,16.42
2023-03-17T14:29:23.171Z,13.73
2023-03-17T14:32:06.329Z,17.63
2023-03-17T14:34:34.689Z,13.10
2023-03-17T14:37:04.336Z,15.32
2023-03-17T14:39:32.431Z,14.18
2023-03-17T14:42:02.851Z,16.15
2023-03-17T14:44:38.985Z,16.27
2023-03-17T14:47:13.844Z,18.42
2023-03-17T14:49:41.969Z,15.25
2023-03-17T14:52:22.129Z,15.13
2023-03-17T14:54:53.213Z,14.70
2023-03-17T14:57:24.709Z,17.60
2023-03-17T15:00:01.929Z,12.65
2023-03-17T15:02:34.365Z,13.93
2023-03-17T15:05:07.874Z,14.20
2023-03-17T15:07:39.748Z,15.40
2023-03-17T15:10:16.520Z,14.55
2023-03-17T15:12:46.691Z,14.20
2023-03-17T15:15:23.850Z,16.13
2023-03-17T15:17:53.377Z,16.98
2023-03-17T15:20:21.806Z,16.55
2023-03-17T15:22:56.942Z,17.20
2023-03-17T15:25:28.947Z,15.82
2023-03-17T15:27:57.276Z,16.85
2023-03-17T15:30:37.355Z,14.57
2023-03-17T15:33:21.095Z,15.27
2023-03-17T15:35:49.470Z,14.80
2023-03-17T15:38:17.573Z,15.60
2023-03-17T15:40:45.736Z,15.80
2023-03-17T15:43:16.341Z,14.65
2023-03-17T15:45:47.471Z,15.55
2023-03-17T15:48:20.442Z,16.75
2023-03-17T15:50:49.612Z,13.32
2023-03-17T15:53:17.972Z,17.30
2023-03-17T15:55:46.191Z,16.17
2023-03-17T15:58:14.321Z,14.77
2023-03-17T16:00:42.995Z,16.55
2023-03-17T16:03:19.768Z,16.95
2023-03-17T16:05:48.023Z,16.88
2023-03-17T16:08:17.917Z,15.68
2023-03-17T16:10:46.739Z,18.15
2023-03-17T16:13:14.970Z,16.80
2023-03-17T16:15:44.888Z,15.90
2023-03-17T16:18:18.850Z,17.17
2023-03-17T16:20:48.925Z,16.42
2023-03-17T16:23:19.221Z,16.02
2023-03-17T16:25:47.805Z,18.50
2023-03-17T16:28:18.012Z,17.70
2023-03-17T16:30:47.428Z,18.55
2023-03-17T16:33:20.744Z,17.08
2023-03-17T16:35:49.636Z,17.67
2023-03-17T16:38:19.757Z,16.50
2023-03-17T16:40:49.781Z,16.60
2023-03-17T16:43:25.526Z,17.02
2023-03-17T16:45:55.424Z,18.17
2023-03-17T16:48:25.201Z,15.55
2023-03-17T16:50:53.587Z,18.60
2023-03-17T16:53:21.831Z,17.30
2023-03-17T16:55:50.842Z,18.33
2023-03-17T16:58:21.593Z,18.15
2023-03-17T17:00:51.404Z,15.15
2023-03-17T17:03:19.603Z,19.80
2023-03-17T17:05:49.232Z,16.55
2023-03-17T17:08:17.363Z,15.15
2023-03-17T17:10:45.588Z,20.90
2023-03-17T17:13:14.553Z,17.55
2023-03-17T17:15:43.539Z,17.23
2023-03-17T17:18:15.651Z,20.92
2023-03-17T17:20:45.230Z,18.45
2023-03-17T17:23:16.617Z,17.35
2023-03-17T17:25:44.968Z,20.40
2023-03-17T17:28:17.398Z,19.42
2023-03-17T17:30:47.910Z,17.67
2023-03-17T17:33:16.937Z,22.75
2023-03-17T17:35:46.250Z,30.60
2023-03-17T17:38:21.943Z,28.58
2023-03-17T17:40:50.791Z,28.55
2023-03-17T17:43:19.242Z,28.98
2023-03-17T17:45:49.608Z,21.08
2023-03-17T17:48:18.064Z,22.92
2023-03-17T17:50:47.344Z,22.50
2023-03-17T17:53:15.734Z,21.52
2023-03-17T17:55:46.995Z,20.90
2023-03-17T17:58:17.034Z,20.65
2023-03-17T18:00:45.431Z,19.42
2023-03-17T18:03:13.506Z,21.92
2023-03-17T18:05:41.841Z,20.48
2023-03-17T18:08:11.763Z,18.25
2023-03-17T18:10:39.819Z,17.27
2023-03-17T18:13:09.663Z,20.52
2023-03-17T18:15:37.884Z,18.63
2023-03-17T18:18:06.804Z,21.67
2023-03-17T18:20:35.362Z,24.30
2023-03-17T18:23:03.833Z,27.35
2023-03-17T18:25:38.948Z,26.20
2023-03-17T18:28:07.046Z,28.25
2023-03-17T18:30:36.576Z,28.38
2023-03-17T18:33:08.677Z,25.92
2023-03-17T18:35:37.344Z,25.35
2023-03-17T18:38:09.086Z,29.20
2023-03-17T18:40:37.670Z,28.23
2023-03-17T18:43:06.102Z,28.10
2023-03-17T18:45:34.285Z,31.70
2023-03-17T18:48:03.878Z,26.33
2023-03-17T18:50:32.148Z,27.23
2023-03-17T18:53:00.362Z,27.48
2023-03-17T18:55:28.466Z,25.70
2023-03-17T18:57:56.532Z,27.10
2023-03-17T19:00:26.229Z,26.10
2023-03-17T19:02:54.651Z,24.90
2023-03-17T19:05:24.461Z,27.58
2023-03-17T19:07:52.575Z,27.73
2023-03-17T19:10:21.765Z,31.58
2023-03-17T19:12:50.660Z,29.92
2023-03-17T19:15:19.563Z,33.05
2023-03-17T19:17:47.707Z,28.73
2023-03-17T19:20:15.939Z,27.83
2023-03-17T19:22:45.526Z,31.08
2023-03-17T19:25:13.609Z,31.23
2023-03-17T19:27:41.632Z,28.02
2023-03-17T19:30:10.936Z,31.42
2023-03-17T19:32:39.014Z,28.20
2023-03-17T19:35:08.406Z,44.47
2023-03-17T19:37:38.065Z,65.47
2023-03-17T19:40:10.583Z,43.13
2023-03-17T19:42:38.609Z,36.00
2023-03-17T19:45:07.989Z,34.28
2023-03-17T19:47:36.187Z,30.27
2023-03-17T19:50:04.392Z,27.60
2023-03-17T19:52:32.441Z,29.98
2023-03-17T19:55:00.518Z,31.13
2023-03-17T19:57:31.186Z,31.75
2023-03-17T19:59:59.297Z,32.08
2023-03-17T20:02:27.380Z,31.13
2023-03-17T20:04:55.657Z,29.52
2023-03-17T20:07:23.818Z,31.38
2023-03-17T20:09:53.357Z,28.73
2023-03-17T20:12:21.742Z,29.20
2023-03-17T20:14:51.671Z,29.88
2023-03-17T20:17:20.691Z,26.27
2023-03-17T20:19:48.804Z,29.52
2023-03-17T20:22:17.170Z,28.13
2023-03-17T20:24:45.774Z,26.80
2023-03-17T20:27:15.385Z,27.65
2023-03-17T20:29:43.985Z,25.65
2023-03-17T20:32:14.940Z,28.67
2023-03-17T20:34:43.699Z,26.85
2023-03-17T20:37:14.151Z,29.80
2023-03-17T20:39:42.399Z,26.52
2023-03-17T20:42:14.576Z,28.75
2023-03-17T20:44:43.013Z,29.55
2023-03-17T20:47:11.448Z,27.25
2023-03-17T20:49:42.692Z,27.95
2023-03-17T20:52:13.344Z,32.22
2023-03-17T20:54:41.688Z,29.02
2023-03-17T20:57:14.052Z,31.65
2023-03-17T20:59:43.862Z,28.88
2023-03-17T21:02:15.776Z,29.48
2023-03-17T21:04:47.667Z,27.38
2023-03-17T21:07:17.007Z,26.33
2023-03-17T21:09:45.636Z,26.48
2023-03-17T21:12:15.436Z,27.23
2023-03-17T21:14:44.163Z,27.70
2023-03-17T21:17:12.727Z,27.85
2023-03-17T21:19:41.763Z,27.33
2023-03-17T21:22:12.502Z,24.98
2023-03-17T21:24:41.389Z,27.98
2023-03-17T21:27:12.024Z,24.10
2023-03-17T21:29:40.991Z,24.08
2023-03-17T21:32:09.507Z,29.40
2023-03-17T21:34:38.253Z,27.75
2023-03-17T21:37:06.473Z,24.67
2023-03-17T21:39:36.274Z,24.45
2023-03-17T21:42:05.281Z,28.35
2023-03-17T21:44:33.482Z,29.02
2023-03-17T21:47:02.960Z,26.40
2023-03-17T21:49:31.164Z,29.88
2023-03-17T21:51:59.280Z,33.85
2023-03-17T21:54:28.398Z,28.75
2023-03-17T21:56:58.361Z,28.67
2023-03-17T21:59:29.303Z,26.55
2023-03-17T22:01:57.871Z,27.35
2023-03-17T22:04:26.355Z,31.80
2023-03-17T22:06:55.615Z,29.45
2023-03-17T22:09:23.689Z,27.13
2023-03-17T22:11:51.730Z,25.73
2023-03-17T22:14:21.142Z,26.42
2023-03-17T22:16:49.778Z,26.45
2023-03-17T22:19:21.107Z,29.38
2023-03-17T22:21:50.006Z,28.60
2023-03-17T22:24:18.148Z,28.33
2023-03-17T22:26:46.682Z,28.90
2023-03-17T22:29:15.078Z,31.23
2023-03-17T22:31:44.608Z,27.30
2023-03-17T22:34:12.720Z,27.05
2023-03-17T22:36:41.202Z,25.55
2023-03-17T22:39:10.553Z,26.80
2023-03-17T22:41:38.932Z,21.98
2023-03-17T22:44:08.407Z,25.05
2023-03-17T22:46:37.584Z,24.52
2023-03-17T22:49:07.842Z,23.17
2023-03-17T22:51:37.002Z,20.08
2023-03-17T22:54:05.678Z,21.33
2023-03-17T22:56:33.777Z,20.52
2023-03-17T22:59:01.927Z,17.55
2023-03-17T23:01:30.062Z,18.02
2023-03-17T23:03:58.610Z,22.13
2023-03-17T23:06:28.028Z,17.00
2023-03-17T23:08:56.320Z,18.95
2023-03-17T23:11:26.188Z,16.92
2023-03-17T23:13:55.363Z,17.60
2023-03-17T23:16:23.461Z,16.15
2023-03-17T23:18:52.685Z,16.90
2023-03-17T23:21:23.926Z,15.55
2023-03-17T23:23:53.325Z,14.55
2023-03-17T23:26:21.624Z,16.48
2023-03-17T23:28:49.618Z,14.30
2023-03-17T23:31:19.429Z,15.65
2023-03-17T23:33:47.965Z,14.43
2023-03-17T23:36:17.035Z,13.02
2023-03-17T23:38:46.767Z,15.05
2023-03-17T23:41:17.490Z,13.90
2023-03-17T23:43:46.874Z,12.25
2023-03-17T23:46:15.285Z,12.68
2023-03-17T23:48:43.558Z,14.90
2023-03-17T23:51:12.913Z,13.32
2023-03-17T23:53:41.718Z,13.50
2023-03-17T23:56:11.204Z,13.23
2023-03-17T23:58:41.481Z,13.80
